Flight Track Log - Related Links

Times and Time Zones

All times are in EDT time to prevent confusion due to time zone crossing. See the SWA395 flight status page for this flight to view local times or setup timezone preferences in your user account.

Time Position Orientation Groundspeed Altitude Reporting Facility
EDT Latitude Longitude Course Direction KTS MPH feet Rate Location/Type
Fri 06:45:51 PM 39.2833 -94.7833 255° West 202 232 3,600  Level Kansas City TRACON
Fri 06:46:59 PM 39.2358 -94.8403 223° Southwest 226 260 7,100 2,519 Climbing Kansas City Center
Fri 06:48:02 PM 39.1947 -94.7608 124° Southeast 311 358 9,100 2,032 Climbing Kansas City Center
Fri 06:49:03 PM 39.1775 -94.6467 101° East 338 389 11,300 2,226 Climbing Kansas City Center
Fri 06:50:06 PM 39.1533 -94.4956 102° East 387 445 13,700 2,371 Climbing Kansas City Center
Fri 06:51:07 PM 39.1322 -94.3594 101° East 402 463 16,200 2,341 Climbing Kansas City Center
Fri 06:52:09 PM 39.1058 -94.1944 102° East 419 482 18,500 2,098 Climbing Kansas City Center
Fri 06:53:10 PM 39.0894 -94.0461 98° East 437 503 20,500 1,872 Climbing Kansas City Center
Fri 06:54:14 PM 39.0794 -93.8661 94° East 451 519 22,400 1,632 Climbing Kansas City Center
Fri 06:55:15 PM 39.0683 -93.7058 95° East 470 541 23,900 1,721 Climbing Kansas City Center
Fri 06:56:16 PM 39.0556 -93.5144 95° East 480 552 25,900 1,694 Climbing Kansas City Center
Fri 06:57:19 PM 39.0444 -93.3347 94° East 487 560 27,400 1,296 Climbing Kansas City Center
Fri 06:58:21 PM 39.0314 -93.1578 95° East 496 571 28,600 1,248 Climbing Kansas City Center
Fri 06:59:24 PM 39.0183 -92.9786 95° East 504 580 30,000 1,306 Climbing Kansas City Center
Fri 07:00:25 PM 38.9961 -92.8053 99° East 509 586 31,300 1,463 Climbing Kansas City Center
Fri 07:01:27 PM 38.9342 -92.6078 112° Southeast 498 573 33,000 829 Climbing Kansas City Center
Fri 07:02:28 PM 38.8817 -92.4411 112° Southeast 498 573 33,000  Level Kansas City Center
Fri 07:03:31 PM 38.8289 -92.2714 112° Southeast 503 579 33,000  Level Kansas City Center
Fri 07:04:32 PM 38.7578 -92.1194 121° Southeast 495 570 33,000 246 Level Kansas City Center
Fri 07:05:33 PM 38.6783 -91.9769 126° Southeast 491 565 33,500 768 Climbing Kansas City Center
Fri 07:06:37 PM 38.5975 -91.8339 126° Southeast 491 565 34,600 726 Climbing Kansas City Center
Fri 07:07:37 PM 38.5178 -91.6953 126° Southeast 485 558 35,000 194 Climbing Kansas City Center
Fri 07:08:41 PM 38.4408 -91.5581 126° Southeast 477 549 35,000  Level Kansas City Center
Fri 07:09:42 PM 38.3619 -91.4206 126° Southeast 475 547 35,000  Level Kansas City Center
Fri 07:10:43 PM 38.2831 -91.2828 126° Southeast 474 545 35,000  Level Kansas City Center
Fri 07:11:44 PM 38.1889 -91.1208 126° Southeast 477 549 35,000  Level Kansas City Center
Fri 07:12:48 PM 38.1111 -90.9858 126° Southeast 477 549 35,000  Level Kansas City Center
Fri 07:13:49 PM 38.0333 -90.8483 126° Southeast 480 552 35,000  Level Kansas City Center
Fri 07:14:50 PM 37.9539 -90.7128 127° Southeast 482 555 35,000  Level Kansas City Center
Fri 07:15:54 PM 37.8744 -90.5756 126° Southeast 486 559 35,000  Level Kansas City Center
Fri 07:16:54 PM 37.7942 -90.4439 128° Southeast 480 552 35,000  Level Kansas City Center
Fri 07:17:58 PM 37.6992 -90.2800 126° Southeast 483 556 35,000  Level Kansas City Center
Fri 07:18:58 PM 37.6508 -90.1133 110° East 517 595 35,000 -439 Level Kansas City Center
Fri 07:20:01 PM 37.6206 -89.9414 102° East 512 589 34,100 -871 Descending Kansas City Center
Fri 07:21:02 PM 37.5903 -89.7661 102° East 513 590 33,200 -541 Descending Kansas City Center
Fri 07:22:03 PM 37.5544 -89.5722 103° East 519 597 33,000 -432 Descending Kansas City Center
Fri 07:23:07 PM 37.5219 -89.3942 103° East 519 597 32,300 -768 Descending Kansas City Center
Fri 07:24:08 PM 37.4883 -89.2172 103° East 519 597 31,400 -629 Descending Kansas City Center
Fri 07:25:11 PM 37.4547 -89.0419 104° East 517 595 31,000 -282 Descending Kansas City Center
Fri 07:25:33 PM 37.4428 -88.9700 102° East 512 589 31,000  Level Memphis Center
Fri 07:26:33 PM 37.4075 -88.7931 104° East 517 595 31,000  Level Memphis Center
Fri 07:27:32 PM 37.3758 -88.6186 103° East 517 595 31,000  Level Memphis Center
Fri 07:28:33 PM 37.3419 -88.4419 104° East 517 595 31,000  Level Memphis Center
Fri 07:29:33 PM 37.3058 -88.2631 104° East 517 595 31,000  Level Memphis Center
Fri 07:30:33 PM 37.2717 -88.0892 104° East 517 595 31,000 -1,200 Level Memphis Center
Fri 07:31:33 PM 37.2306 -87.9056 106° East 530 610 28,600 -2,550 Descending Memphis Center
Fri 07:32:33 PM 37.1631 -87.7567 120° Southeast 514 592 25,900 -2,300 Descending Memphis Center
Fri 07:33:33 PM 37.0892 -87.6161 123° Southeast 486 559 24,000 -2,000 Descending Memphis Center
Fri 07:34:09 PM 37.0392 -87.5294 126° Southeast 447 514 22,700 -2,000 Descending Memphis Center
Fri 07:34:33 PM 37.0217 -87.4883 118° Southeast 455 524 22,000 -2,328 Descending Memphis Center
Fri 07:35:16 PM 36.9650 -87.3867 125° Southeast 427 491 20,100 -2,339 Descending Memphis Center
Fri 07:35:32 PM 36.9517 -87.3533 117° Southeast 434 499 19,700 -2,000 Descending Memphis Center
Fri 07:36:16 PM 36.9039 -87.2694 125° Southeast 414 476 18,100 -2,164 Descending Memphis Center
Fri 07:36:33 PM 36.8861 -87.2286 119° Southeast 424 488 17,500 -2,026 Descending Memphis Center
Fri 07:37:33 PM 36.8247 -87.1144 124° Southeast 411 473 15,500 -2,200 Descending Memphis Center
Fri 07:38:33 PM 36.7356 -87.0483 149° Southeast 380 437 13,100 -2,400 Descending Memphis Center
Fri 07:39:33 PM 36.6444 -86.9950 155° Southeast 375 432 10,700 -1,850 Descending Memphis Center
Fri 07:40:33 PM 36.5617 -86.9392 152° Southeast 347 399 9,400 -1,400 Descending Memphis Center
Fri 07:41:33 PM 36.4992 -86.8617 135° Southeast 324 373 7,900 -1,250 Descending Memphis Center
Fri 07:42:33 PM 36.4469 -86.7917 133° Southeast 311 358 6,900 -1,100 Descending Memphis Center
Fri 07:43:33 PM 36.3908 -86.7194 134° Southeast 297 342 5,700 -850 Descending Memphis Center
Fri 07:44:33 PM 36.3431 -86.6544 132° Southeast 271 312 5,200 -700 Descending Memphis Center
Fri 07:45:33 PM 36.2972 -86.5897 131° Southeast 242 278 4,300 -650 Descending Memphis Center
Fri 07:46:33 PM 36.2519 -86.6072 197° South 169 194 3,900 -1,000 Descending Memphis Center
Fri 07:47:33 PM 36.2150 -86.6269 203° Southwest 150 173 2,300 -1,210 Descending Memphis Center
Fri 07:48:32 PM 36.1758 -86.6417 197° South 150 173 1,500 -800 Descending Memphis Center
Fri 07:49:33 PM 36.1367 -86.6564 197° South 150 173 700 -397 Descending Memphis Center
Fri 07:50:33 PM 36.1058 -86.6706 200° South 150 173 700  Level Memphis Center

Login

Don't have an account? Register now (free) for customized features, flight alerts, and more!